Little Elm, Texas
Current Conditions -  °F | °C
As of 5:47 PM on Monday 20 Oct 2014 (Local Time) from KADS Reporting Station
Scattered Clouds Scattered Clouds  
Wind Chill: 79°   Ceiling: Unl
Heat Index: 80°   Visibility: 13mi
Dew Point: 57°   Wind: 0mph
Humidity: 47%   Direction: NA
Pressure: 30.01"   Gusts: NA
Location:  33.16°N, 96.93°W
Report Text: KADS 202247Z 00000KT 13SM FEW035 SCT200 26/14 A3001
Loading
Personal Weather Stations






























Interactive Weather Map
Tropical Storm Tracking
New forecast layout! Learn more

10-Day Weather Forecast

Advertisements
Track Severe Weather on mobile